createdAt,value
2019-04-11T00:02:02.829Z,87.70
2019-04-11T00:04:32.312Z,88.20
2019-04-11T00:07:01.304Z,88.70
2019-04-11T00:09:30.470Z,88.90
2019-04-11T00:11:59.959Z,89.80
2019-04-11T00:14:29.643Z,89.10
2019-04-11T00:16:58.833Z,89.30
2019-04-11T00:19:27.723Z,88.40
2019-04-11T00:21:57.309Z,88.30
2019-04-11T00:24:27.166Z,89.20
2019-04-11T00:26:57.014Z,90.30
2019-04-11T00:29:26.157Z,90.20
2019-04-11T00:31:55.121Z,89.80
2019-04-11T00:34:24.088Z,89.10
2019-04-11T00:36:53.053Z,89.50
2019-04-11T00:39:22.025Z,90.20
2019-04-11T00:41:50.926Z,90.50
2019-04-11T00:44:20.744Z,90.40
2019-04-11T00:46:50.902Z,89.90
2019-04-11T00:49:20.117Z,90.20
2019-04-11T00:51:49.932Z,90.30
2019-04-11T00:54:18.950Z,89.50
2019-04-11T00:56:48.450Z,89.40
2019-04-11T00:59:18.274Z,90.00
2019-04-11T01:01:47.300Z,89.80
2019-04-11T01:04:16.238Z,89.20
2019-04-11T01:06:45.121Z,88.80
2019-04-11T01:09:14.084Z,89.00
2019-04-11T01:11:43.694Z,88.60
2019-04-11T01:14:13.245Z,89.30
2019-04-11T01:16:46.780Z,89.10
2019-04-11T01:19:16.351Z,89.90
2019-04-11T01:21:48.785Z,90.60
2019-04-11T01:24:17.937Z,90.00
2019-04-11T01:26:47.808Z,90.30
2019-04-11T01:29:17.552Z,90.10
2019-04-11T01:31:49.537Z,90.20
2019-04-11T01:34:28.827Z,90.40
2019-04-11T01:36:57.816Z,89.90
2019-04-11T01:39:29.350Z,90.10
2019-04-11T01:41:58.739Z,90.70
2019-04-11T01:44:28.401Z,90.80
2019-04-11T01:46:58.403Z,90.20
2019-04-11T01:49:28.482Z,90.50
2019-04-11T01:51:58.261Z,90.50
2019-04-11T01:54:28.084Z,90.80
2019-04-11T01:56:58.038Z,91.10
2019-04-11T01:59:27.154Z,91.70
2019-04-11T02:02:17.030Z,91.70
2019-04-11T02:04:56.552Z,91.50
2019-04-11T02:07:26.769Z,91.30
2019-04-11T02:09:56.752Z,91.40
2019-04-11T02:12:26.834Z,92.10
2019-04-11T02:14:55.874Z,92.40
2019-04-11T02:17:24.750Z,92.10
2019-04-11T02:20:03.380Z,92.30
2019-04-11T02:22:52.886Z,92.40
2019-04-11T02:25:36.669Z,91.80
2019-04-11T02:28:08.560Z,91.40
2019-04-11T02:30:41.040Z,92.10
2019-04-11T02:33:11.706Z,92.10
2019-04-11T02:35:42.347Z,91.90
2019-04-11T02:38:12.631Z,92.00
2019-04-11T02:40:43.119Z,92.30
2019-04-11T02:43:13.450Z,92.30
2019-04-11T02:45:56.939Z,92.30
2019-04-11T02:48:13.985Z,92.30
2019-04-11T02:50:43.615Z,91.90
2019-04-11T02:53:14.681Z,92.00
2019-04-11T02:55:46.003Z,91.90
2019-04-11T02:58:15.267Z,92.30
2019-04-11T03:00:45.000Z,92.30
2019-04-11T03:03:17.239Z,92.50
2019-04-11T03:05:46.840Z,92.60
2019-04-11T03:08:19.151Z,92.50
2019-04-11T03:10:46.754Z,92.40
2019-04-11T03:13:18.934Z,92.40
2019-04-11T03:16:07.135Z,92.40
2019-04-11T03:18:40.773Z,92.40
2019-04-11T03:20:56.757Z,92.50
2019-04-11T03:23:22.856Z,92.60
2019-04-11T03:25:52.447Z,92.80
2019-04-11T03:28:27.070Z,92.90
2019-04-11T03:31:15.856Z,93.50
2019-04-11T03:34:12.717Z,93.20
2019-04-11T03:36:54.156Z,93.20
2019-04-11T03:38:51.429Z,93.00
2019-04-11T03:41:14.153Z,92.90
2019-04-11T03:43:33.774Z,93.10
2019-04-11T03:46:15.413Z,92.90
2019-04-11T03:48:40.133Z,93.10
2019-04-11T03:50:59.520Z,93.20
2019-04-11T03:53:29.921Z,92.60
2019-04-11T03:56:01.490Z,92.40
2019-04-11T03:58:31.163Z,92.20
2019-04-11T04:01:03.413Z,92.70
2019-04-11T04:03:31.336Z,92.50
2019-04-11T04:06:01.936Z,92.70
2019-04-11T04:08:31.528Z,92.90
2019-04-11T04:11:09.191Z,93.30
2019-04-11T04:13:40.055Z,94.20
2019-04-11T04:16:27.475Z,94.00
2019-04-11T04:19:00.979Z,93.90
2019-04-11T04:21:38.741Z,94.10
2019-04-11T04:24:10.578Z,93.80
2019-04-11T04:26:41.155Z,93.30
2019-04-11T04:29:11.449Z,93.30
2019-04-11T04:31:42.439Z,93.00
2019-04-11T04:34:11.515Z,93.70
2019-04-11T04:36:42.239Z,94.50
2019-04-11T04:39:12.611Z,94.10
2019-04-11T04:41:53.469Z,94.00
2019-04-11T04:44:16.994Z,94.30
2019-04-11T04:46:58.068Z,94.60
2019-04-11T04:49:18.543Z,94.50
2019-04-11T04:51:47.841Z,94.80
2019-04-11T04:54:17.006Z,94.50
2019-04-11T04:56:47.299Z,94.70
2019-04-11T04:59:16.396Z,94.50
2019-04-11T05:01:46.316Z,94.80
2019-04-11T05:04:15.974Z,94.70
2019-04-11T05:06:48.116Z,95.10
2019-04-11T05:09:15.442Z,95.00
2019-04-11T05:11:44.657Z,94.70
2019-04-11T05:14:14.612Z,94.80
2019-04-11T05:16:44.167Z,94.90
2019-04-11T05:19:13.177Z,94.80
2019-04-11T05:21:42.210Z,94.90
2019-04-11T05:24:12.450Z,95.20
2019-04-11T05:26:41.804Z,95.20
2019-04-11T05:29:11.153Z,94.90
2019-04-11T05:31:40.806Z,94.90
2019-04-11T05:34:10.149Z,94.80
2019-04-11T05:36:42.901Z,94.70
2019-04-11T05:39:15.610Z,94.90
2019-04-11T05:41:46.709Z,94.60
2019-04-11T05:44:16.644Z,94.80
2019-04-11T05:46:52.384Z,94.80
2019-04-11T05:49:22.801Z,94.80
2019-04-11T05:51:58.638Z,94.70
2019-04-11T05:54:28.102Z,94.60
2019-04-11T05:56:59.551Z,94.80
2019-04-11T05:59:30.597Z,94.50
2019-04-11T06:02:06.263Z,94.50
2019-04-11T06:04:34.395Z,94.20
2019-04-11T06:07:07.951Z,93.90
2019-04-11T06:09:39.025Z,94.10
2019-04-11T06:12:39.292Z,93.90
2019-04-11T06:15:10.056Z,94.10
2019-04-11T06:17:40.755Z,94.00
2019-04-11T06:20:31.306Z,94.10
2019-04-11T06:23:17.386Z,94.00
2019-04-11T06:25:49.123Z,93.40
2019-04-11T06:28:20.207Z,94.20
2019-04-11T06:30:50.762Z,94.30
2019-04-11T06:33:21.265Z,94.20
2019-04-11T06:36:08.270Z,93.90
2019-04-11T06:38:45.004Z,93.70
2019-04-11T06:41:24.777Z,93.70
2019-04-11T06:44:12.279Z,93.40
2019-04-11T06:47:03.529Z,93.10
2019-04-11T06:49:34.500Z,92.60
2019-04-11T06:52:04.969Z,93.50
2019-04-11T06:54:37.038Z,92.90
2019-04-11T06:57:07.854Z,93.00
2019-04-11T06:59:38.682Z,93.00
2019-04-11T07:02:18.078Z,92.50
2019-04-11T07:04:53.986Z,92.60
2019-04-11T07:07:27.261Z,92.60
2019-04-11T07:10:01.947Z,92.20
2019-04-11T07:12:42.675Z,92.50
2019-04-11T07:15:17.062Z,92.90
2019-04-11T07:18:07.070Z,92.90
2019-04-11T07:20:52.378Z,93.00
2019-04-11T07:23:38.962Z,93.20
2019-04-11T07:26:10.187Z,93.00
2019-04-11T07:28:43.979Z,92.90
2019-04-11T07:31:21.558Z,92.70
2019-04-11T07:33:52.322Z,92.90
2019-04-11T07:36:38.956Z,92.60
2019-04-11T07:39:10.322Z,92.90
2019-04-11T07:41:41.680Z,92.60
2019-04-11T07:44:15.840Z,92.80
2019-04-11T07:47:14.619Z,92.40
2019-04-11T07:49:37.573Z,92.40
2019-04-11T07:52:08.835Z,93.10
2019-04-11T07:54:38.877Z,92.70
2019-04-11T07:57:24.585Z,92.20
2019-04-11T08:00:00.911Z,92.90
2019-04-11T08:02:48.273Z,92.50
2019-04-11T08:05:24.894Z,92.30
2019-04-11T08:08:11.038Z,91.70
2019-04-11T08:10:58.111Z,92.10
2019-04-11T08:13:36.907Z,91.90
2019-04-11T08:16:16.525Z,92.00
2019-04-11T08:19:05.552Z,91.70
2019-04-11T08:21:52.681Z,92.20
2019-04-11T08:24:25.779Z,92.10
2019-04-11T08:27:11.410Z,92.30
2019-04-11T08:29:40.734Z,92.10
2019-04-11T08:32:27.818Z,92.20
2019-04-11T08:35:13.615Z,91.70
2019-04-11T08:38:02.940Z,92.10
2019-04-11T08:40:40.185Z,92.10
2019-04-11T08:43:10.941Z,91.80
2019-04-11T08:45:51.156Z,91.70
2019-04-11T08:48:21.999Z,91.30
2019-04-11T08:50:52.603Z,90.80
2019-04-11T08:53:40.670Z,91.20
2019-04-11T08:56:10.616Z,91.40
2019-04-11T08:58:53.370Z,91.20
2019-04-11T09:01:24.316Z,91.10
2019-04-11T09:04:02.119Z,90.70
2019-04-11T09:06:28.344Z,90.60
2019-04-11T09:09:09.071Z,90.70
2019-04-11T09:11:42.690Z,90.30
2019-04-11T09:14:24.207Z,91.40
2019-04-11T09:16:58.306Z,91.20
2019-04-11T09:19:32.697Z,91.20
2019-04-11T09:22:13.084Z,90.70
2019-04-11T09:24:43.950Z,90.50
2019-04-11T09:27:31.239Z,90.90
2019-04-11T09:30:20.975Z,90.30
2019-04-11T09:32:58.274Z,90.30
2019-04-11T09:35:38.090Z,90.40
2019-04-11T09:38:08.676Z,90.20
2019-04-11T09:40:52.101Z,88.80
2019-04-11T09:43:23.997Z,89.50
2019-04-11T09:46:04.448Z,88.00
2019-04-11T09:51:31.884Z,88.00
2019-04-11T09:54:20.713Z,88.50
2019-04-11T09:57:09.975Z,89.30
2019-04-11T09:59:41.156Z,87.50
2019-04-11T10:02:27.491Z,86.40
2019-04-11T10:05:00.835Z,87.20
2019-04-11T10:07:38.726Z,85.30
2019-04-11T10:10:15.386Z,85.80
2019-04-11T10:13:02.650Z,85.90
2019-04-11T10:15:33.740Z,83.50
2019-04-11T10:18:19.594Z,84.90
2019-04-11T10:20:40.490Z,84.60
2019-04-11T10:23:27.047Z,85.70
2019-04-11T10:25:56.752Z,83.70
2019-04-11T10:28:45.977Z,84.70
2019-04-11T10:31:15.138Z,81.90
2019-04-11T10:33:49.033Z,83.00
2019-04-11T10:36:25.454Z,82.00
2019-04-11T10:38:57.419Z,81.60
2019-04-11T10:41:33.630Z,81.90
2019-04-11T10:44:03.336Z,81.30
2019-04-11T10:46:37.485Z,82.30
2019-04-11T10:49:11.640Z,80.40
2019-04-11T10:51:45.700Z,81.50
2019-04-11T10:54:15.608Z,81.90
2019-04-11T10:56:55.810Z,80.80
2019-04-11T10:59:27.844Z,82.00
2019-04-11T11:02:04.484Z,82.50
2019-04-11T11:04:35.172Z,81.20
2019-04-11T11:07:06.507Z,79.90
2019-04-11T11:09:37.727Z,80.10
2019-04-11T11:12:12.713Z,79.60
2019-04-11T11:15:00.925Z,80.20
2019-04-11T11:17:54.821Z,80.40
2019-04-11T11:20:33.658Z,81.30
2019-04-11T11:22:57.349Z,78.70
2019-04-11T11:25:30.939Z,82.20
2019-04-11T11:28:00.824Z,77.90
2019-04-11T11:30:37.799Z,79.80
2019-04-11T11:33:08.345Z,80.40
2019-04-11T11:35:42.825Z,76.30
2019-04-11T11:38:19.958Z,76.30
2019-04-11T11:41:07.994Z,72.90
2019-04-11T11:43:37.149Z,73.60
2019-04-11T11:46:25.530Z,76.20
2019-04-11T11:48:54.102Z,74.70
2019-04-11T11:51:26.922Z,71.00
2019-04-11T11:54:11.807Z,72.40
2019-04-11T11:56:42.527Z,75.70
2019-04-11T11:59:16.980Z,70.20
2019-04-11T12:02:04.391Z,72.70
2019-04-11T12:04:48.435Z,67.10
2019-04-11T12:07:36.985Z,69.80
2019-04-11T12:10:13.369Z,69.50
2019-04-11T12:12:44.234Z,67.40
2019-04-11T12:15:31.354Z,72.90
2019-04-11T12:18:18.878Z,65.90
2019-04-11T12:20:58.776Z,63.50
2019-04-11T12:23:29.363Z,68.40
2019-04-11T12:25:58.439Z,66.70
2019-04-11T12:28:31.383Z,64.80
2019-04-11T12:31:03.837Z,67.50
2019-04-11T12:33:39.984Z,67.10
2019-04-11T12:36:14.681Z,66.80
2019-04-11T12:38:45.484Z,67.60
2019-04-11T12:41:16.021Z,65.10
2019-04-11T12:44:04.679Z,69.00
2019-04-11T12:46:41.599Z,67.00
2019-04-11T12:49:27.429Z,69.80
2019-04-11T12:52:14.683Z,64.20
2019-04-11T12:54:45.139Z,63.90
2019-04-11T12:57:18.417Z,65.70
2019-04-11T12:59:49.341Z,66.40
2019-04-11T13:02:19.985Z,69.00
2019-04-11T13:04:48.917Z,69.70
2019-04-11T13:07:28.162Z,71.80
2019-04-11T13:09:58.667Z,70.60
2019-04-11T13:12:38.065Z,70.80
2019-04-11T13:15:12.331Z,71.60
2019-04-11T13:17:45.474Z,71.90
2019-04-11T13:20:24.564Z,72.90
2019-04-11T13:22:55.043Z,74.60
2019-04-11T13:25:25.567Z,73.80
2019-04-11T13:27:56.041Z,73.50
2019-04-11T13:30:29.326Z,73.50
2019-04-11T13:32:58.647Z,71.40
2019-04-11T13:35:34.631Z,69.70
2019-04-11T13:38:11.043Z,74.50
2019-04-11T13:40:45.026Z,70.80
2019-04-11T13:43:25.167Z,71.30
2019-04-11T13:45:56.158Z,70.30
2019-04-11T13:48:44.973Z,69.10
2019-04-11T13:51:17.407Z,69.90
2019-04-11T13:54:06.653Z,68.60
2019-04-11T13:56:53.588Z,68.40
2019-04-11T13:59:36.733Z,69.60
2019-04-11T14:02:08.093Z,71.10
2019-04-11T14:04:50.719Z,71.20
2019-04-11T14:07:21.286Z,67.90
2019-04-11T14:10:05.568Z,69.80
2019-04-11T14:12:34.859Z,68.40
2019-04-11T14:15:13.186Z,70.20
2019-04-11T14:17:47.633Z,67.70
2019-04-11T14:20:30.138Z,68.40
2019-04-11T14:23:05.678Z,68.20
2019-04-11T14:25:45.446Z,67.20
2019-04-11T14:28:16.456Z,68.50
2019-04-11T14:30:51.641Z,67.00
2019-04-11T14:33:17.579Z,68.60
2019-04-11T14:35:48.030Z,67.80
2019-04-11T14:38:25.364Z,67.80
2019-04-11T14:41:01.772Z,66.30
2019-04-11T14:43:32.101Z,65.30
2019-04-11T14:46:19.042Z,66.40
2019-04-11T14:48:49.649Z,65.90
2019-04-11T14:51:36.255Z,66.30
2019-04-11T14:54:07.056Z,66.10
2019-04-11T14:56:52.103Z,66.50
2019-04-11T14:59:23.800Z,66.90
2019-04-11T15:01:55.107Z,67.90
2019-04-11T15:04:25.780Z,70.40
2019-04-11T15:06:56.626Z,69.80
2019-04-11T15:09:46.441Z,70.60
2019-04-11T15:12:17.664Z,69.30
2019-04-11T15:14:51.568Z,69.30
2019-04-11T15:17:26.993Z,69.30
2019-04-11T15:20:02.666Z,69.80
2019-04-11T15:22:42.053Z,70.50
2019-04-11T15:25:28.552Z,70.90
2019-04-11T15:28:01.996Z,69.70
2019-04-11T15:30:49.643Z,70.00
2019-04-11T15:33:36.495Z,71.30
2019-04-11T15:36:06.969Z,70.70
2019-04-11T15:38:46.537Z,70.20
2019-04-11T15:41:15.648Z,72.10
2019-04-11T15:43:58.300Z,72.50
2019-04-11T15:46:29.098Z,72.90
2019-04-11T15:49:03.167Z,72.30
2019-04-11T15:51:39.862Z,71.70
2019-04-11T15:54:16.379Z,71.40
2019-04-11T15:56:48.095Z,72.70
2019-04-11T15:59:18.759Z,74.40
2019-04-11T16:02:05.614Z,72.80
2019-04-11T16:04:36.656Z,73.80
2019-04-11T16:07:15.387Z,73.00
2019-04-11T16:09:52.819Z,72.70
2019-04-11T16:12:41.121Z,73.70
2019-04-11T16:15:16.692Z,73.50
2019-04-11T16:18:03.378Z,72.60
2019-04-11T16:20:33.040Z,72.70
2019-04-11T16:23:19.996Z,72.70
2019-04-11T16:25:50.525Z,74.10
2019-04-11T16:28:38.173Z,74.80
2019-04-11T16:31:09.798Z,77.40
2019-04-11T16:33:59.264Z,75.50
2019-04-11T16:36:30.698Z,75.10
2019-04-11T16:39:01.878Z,75.60
2019-04-11T16:41:51.623Z,76.30
2019-04-11T16:44:26.957Z,75.90
2019-04-11T16:47:10.009Z,76.80
2019-04-11T16:49:39.196Z,78.20
2019-04-11T16:52:08.564Z,79.70
2019-04-11T16:54:39.733Z,80.00
2019-04-11T16:57:08.430Z,82.00
2019-04-11T16:59:39.137Z,81.10
2019-04-11T17:02:08.600Z,82.00
2019-04-11T17:04:39.743Z,82.50
2019-04-11T17:07:27.092Z,82.10
2019-04-11T17:10:00.754Z,82.70
2019-04-11T17:12:29.698Z,83.00
2019-04-11T17:15:01.117Z,81.80
2019-04-11T17:17:30.994Z,83.70
2019-04-11T17:19:59.778Z,83.30
2019-04-11T17:22:28.762Z,81.70
2019-04-11T17:24:57.694Z,82.20
2019-04-11T17:27:26.573Z,84.20
2019-04-11T17:29:55.761Z,83.00
2019-04-11T17:32:26.606Z,83.90
2019-04-11T17:34:56.089Z,81.80
2019-04-11T17:37:25.745Z,82.80
2019-04-11T17:39:54.948Z,83.10
2019-04-11T17:42:24.628Z,83.60
2019-04-11T17:44:53.847Z,84.60
2019-04-11T17:47:26.791Z,84.20
2019-04-11T17:49:54.824Z,83.50
2019-04-11T17:52:24.392Z,82.80
2019-04-11T17:54:54.282Z,83.60
2019-04-11T17:57:27.146Z,82.90
2019-04-11T17:59:56.760Z,84.40
2019-04-11T18:02:27.775Z,83.40
2019-04-11T18:04:58.960Z,83.50
2019-04-11T18:07:28.184Z,82.50
2019-04-11T18:09:57.638Z,83.50
2019-04-11T18:12:27.388Z,84.70
2019-04-11T18:14:56.541Z,85.20
2019-04-11T18:17:26.561Z,84.40
2019-04-11T18:19:58.754Z,83.80
2019-04-11T18:22:28.773Z,85.10
2019-04-11T18:24:58.361Z,85.30
2019-04-11T18:27:32.368Z,84.60
2019-04-11T18:30:01.239Z,84.70
2019-04-11T18:32:31.584Z,84.30
2019-04-11T18:35:02.430Z,85.10
2019-04-11T18:37:32.112Z,87.00
2019-04-11T18:40:06.316Z,85.50
2019-04-11T18:42:32.660Z,85.30
2019-04-11T18:45:02.105Z,86.00
2019-04-11T18:47:31.436Z,86.50
2019-04-11T18:50:01.162Z,87.00
2019-04-11T18:52:30.788Z,87.70
2019-04-11T18:55:00.027Z,87.90
2019-04-11T18:57:28.910Z,87.90
2019-04-11T18:59:57.931Z,90.30
2019-04-11T19:02:27.271Z,88.50
2019-04-11T19:04:56.220Z,88.80
2019-04-11T19:07:28.047Z,90.40
2019-04-11T19:10:00.936Z,89.00
2019-04-11T19:12:28.744Z,89.30
2019-04-11T19:14:57.785Z,88.50
2019-04-11T19:17:26.665Z,88.70
2019-04-11T19:19:55.598Z,89.00
2019-04-11T19:22:37.165Z,90.20
2019-04-11T19:24:55.145Z,90.20
2019-04-11T19:27:24.035Z,88.90
2019-04-11T19:29:55.591Z,89.50
2019-04-11T19:32:23.537Z,89.70
2019-04-11T19:34:52.445Z,88.50
2019-04-11T19:37:21.392Z,89.40
2019-04-11T19:39:50.312Z,89.10
2019-04-11T19:42:19.908Z,89.30
2019-04-11T19:44:49.672Z,89.90
2019-04-11T19:47:21.458Z,89.50
2019-04-11T19:49:49.820Z,89.60
2019-04-11T19:52:18.737Z,90.00
2019-04-11T19:54:47.694Z,90.00
2019-04-11T19:57:16.574Z,90.30
2019-04-11T19:59:45.510Z,90.10
2019-04-11T20:02:14.439Z,90.00
2019-04-11T20:04:43.349Z,90.00
2019-04-11T20:07:12.314Z,90.10
2019-04-11T20:09:41.305Z,90.30
2019-04-11T20:12:10.234Z,90.30
2019-04-11T20:14:41.038Z,90.20
2019-04-11T20:17:09.964Z,90.40
2019-04-11T20:19:38.922Z,90.60
2019-04-11T20:22:08.592Z,90.40
2019-04-11T20:24:38.244Z,90.10
2019-04-11T20:27:07.143Z,90.60
2019-04-11T20:29:36.083Z,90.60
2019-04-11T20:32:05.187Z,90.40
2019-04-11T20:34:38.033Z,90.20
2019-04-11T20:37:04.660Z,90.30
2019-04-11T20:39:33.743Z,90.30
2019-04-11T20:42:02.894Z,90.50
2019-04-11T20:44:31.878Z,90.20
2019-04-11T20:47:01.130Z,90.40
2019-04-11T20:49:30.139Z,90.40
2019-04-11T20:51:59.086Z,90.10
2019-04-11T20:54:28.050Z,90.30
2019-04-11T20:56:56.997Z,90.30
2019-04-11T20:59:34.383Z,90.40
2019-04-11T21:01:57.025Z,90.20
2019-04-11T21:04:26.244Z,90.80
2019-04-11T21:06:55.123Z,90.80
2019-04-11T21:09:24.165Z,90.80
2019-04-11T21:11:53.236Z,90.50
2019-04-11T21:14:22.460Z,90.20
2019-04-11T21:16:51.391Z,90.70
2019-04-11T21:19:23.168Z,90.60
2019-04-11T21:21:53.270Z,90.80
2019-04-11T21:24:21.484Z,91.00
2019-04-11T21:26:50.449Z,91.70
2019-04-11T21:29:19.417Z,92.40
2019-04-11T21:31:48.381Z,92.10
2019-04-11T21:34:17.261Z,91.80
2019-04-11T21:36:46.889Z,92.10
2019-04-11T21:39:15.849Z,92.20
2019-04-11T21:41:45.376Z,91.70
2019-04-11T21:44:14.505Z,92.30
2019-04-11T21:46:43.420Z,92.60
2019-04-11T21:49:12.418Z,92.10
2019-04-11T21:51:42.462Z,92.40
2019-04-11T21:54:14.689Z,92.50
2019-04-11T21:56:42.375Z,92.20
2019-04-11T21:59:11.295Z,92.30
2019-04-11T22:01:43.201Z,92.40
2019-04-11T22:04:12.266Z,91.70
2019-04-11T22:06:41.275Z,91.50
2019-04-11T22:09:10.842Z,91.70
2019-04-11T22:11:39.995Z,92.20
2019-04-11T22:14:11.334Z,92.40
2019-04-11T22:16:39.453Z,92.10
2019-04-11T22:19:08.466Z,92.10
2019-04-11T22:21:37.481Z,92.10
2019-04-11T22:24:06.352Z,92.10
2019-04-11T22:26:35.304Z,92.00
2019-04-11T22:29:04.219Z,92.00
2019-04-11T22:31:33.122Z,91.90
2019-04-11T22:34:15.907Z,92.30
2019-04-11T22:36:44.855Z,92.30
2019-04-11T22:39:13.752Z,92.50
2019-04-11T22:41:42.635Z,92.70
2019-04-11T22:44:11.570Z,91.90
2019-04-11T22:46:40.517Z,92.20
2019-04-11T22:49:09.502Z,92.10
2019-04-11T22:51:42.555Z,93.00
2019-04-11T22:54:12.908Z,93.00
2019-04-11T22:56:41.754Z,93.50
2019-04-11T22:59:38.566Z,93.60
2019-04-11T23:02:10.924Z,93.20
2019-04-11T23:04:40.902Z,92.70
2019-04-11T23:07:09.805Z,92.80
2019-04-11T23:09:38.755Z,93.30
2019-04-11T23:12:07.643Z,93.30
2019-04-11T23:14:36.584Z,93.30
2019-04-11T23:17:05.459Z,93.80
2019-04-11T23:19:34.395Z,93.00
2019-04-11T23:22:03.280Z,94.10
2019-04-11T23:24:32.214Z,93.80
2019-04-11T23:27:01.081Z,93.80
2019-04-11T23:29:30.002Z,93.70
2019-04-11T23:31:59.628Z,93.50
2019-04-11T23:34:28.601Z,93.50
2019-04-11T23:36:57.536Z,93.50
2019-04-11T23:39:26.415Z,94.40
2019-04-11T23:41:55.332Z,94.00
2019-04-11T23:44:24.275Z,93.50
2019-04-11T23:46:53.342Z,94.50
2019-04-11T23:49:24.724Z,94.60
2019-04-11T23:51:55.711Z,93.90
2019-04-11T23:54:23.518Z,94.10
2019-04-11T23:56:52.489Z,94.10
2019-04-11T23:59:21.362Z,94.80
